createdAt,value
2023-05-04T00:01:28.546Z,50.85
2023-05-04T00:03:59.593Z,51.33
2023-05-04T00:06:26.630Z,51.47
2023-05-04T00:08:53.150Z,51.54
2023-05-04T00:11:19.947Z,51.40
2023-05-04T00:13:54.790Z,51.50
2023-05-04T00:16:21.885Z,52.54
2023-05-04T00:18:48.380Z,51.60
2023-05-04T00:21:14.973Z,51.50
2023-05-04T00:23:45.853Z,52.14
2023-05-04T00:26:12.310Z,52.49
2023-05-04T00:28:38.815Z,52.73
2023-05-04T00:31:05.759Z,52.43
2023-05-04T00:33:32.224Z,52.31
2023-05-04T00:35:58.707Z,52.39
2023-05-04T00:38:25.156Z,51.74
2023-05-04T00:40:51.649Z,52.11
2023-05-04T00:43:24.153Z,51.89
2023-05-04T00:45:51.195Z,51.99
2023-05-04T00:48:17.815Z,52.47
2023-05-04T00:50:44.382Z,52.86
2023-05-04T00:53:21.972Z,53.40
2023-05-04T00:55:48.674Z,52.99
2023-05-04T00:58:15.599Z,53.30
2023-05-04T01:00:42.463Z,52.55
2023-05-04T01:03:10.317Z,52.80
2023-05-04T01:05:45.806Z,52.76
2023-05-04T01:08:20.862Z,52.65
2023-05-04T01:11:04.628Z,52.39
2023-05-04T01:13:35.232Z,52.47
2023-05-04T01:16:03.233Z,53.42
2023-05-04T01:18:30.125Z,53.26
2023-05-04T01:20:56.643Z,53.74
2023-05-04T01:23:23.555Z,53.36
2023-05-04T01:26:15.972Z,54.45
2023-05-04T01:29:05.188Z,55.31
2023-05-04T01:31:36.372Z,54.20
2023-05-04T01:34:04.996Z,55.18
2023-05-04T01:36:38.156Z,56.07
2023-05-04T01:39:05.972Z,56.08
2023-05-04T01:41:32.439Z,55.77
2023-05-04T01:43:59.022Z,54.93
2023-05-04T01:46:25.649Z,55.39
2023-05-04T01:48:52.474Z,55.30
2023-05-04T01:51:19.248Z,55.25
2023-05-04T01:53:45.714Z,55.08
2023-05-04T01:56:12.286Z,54.79
2023-05-04T01:58:38.749Z,55.33
2023-05-04T02:01:05.552Z,55.31
2023-05-04T02:03:32.157Z,55.68
2023-05-04T02:06:01.012Z,55.49
2023-05-04T02:08:27.500Z,55.27
2023-05-04T02:10:53.996Z,55.46
2023-05-04T02:13:20.504Z,55.43
2023-05-04T02:15:47.181Z,55.99
2023-05-04T02:18:13.765Z,56.03
2023-05-04T02:20:40.221Z,55.71
2023-05-04T02:23:07.022Z,56.08
2023-05-04T02:25:33.478Z,56.50
2023-05-04T02:27:59.957Z,56.38
2023-05-04T02:30:26.615Z,56.45
2023-05-04T02:32:53.212Z,57.15
2023-05-04T02:35:19.749Z,57.03
2023-05-04T02:37:46.231Z,56.89
2023-05-04T02:40:13.380Z,56.49
2023-05-04T02:42:39.820Z,56.23
2023-05-04T02:45:07.572Z,57.08
2023-05-04T02:47:34.286Z,56.70
2023-05-04T02:50:21.214Z,56.35
2023-05-04T02:52:47.639Z,56.74
2023-05-04T02:55:14.220Z,56.55
2023-05-04T02:57:40.901Z,56.57
2023-05-04T03:00:08.197Z,56.60
2023-05-04T03:02:34.852Z,56.58
2023-05-04T03:05:01.456Z,56.35
2023-05-04T03:07:31.340Z,56.33
2023-05-04T03:09:57.862Z,56.44
2023-05-04T03:12:27.490Z,56.43
2023-05-04T03:14:53.961Z,56.51
2023-05-04T03:17:20.445Z,56.22
2023-05-04T03:19:47.186Z,56.63
2023-05-04T03:22:19.516Z,56.98
2023-05-04T03:24:46.146Z,57.36
2023-05-04T03:27:12.909Z,57.18
2023-05-04T03:29:39.493Z,58.36
2023-05-04T03:32:06.743Z,59.20
2023-05-04T03:34:33.391Z,59.21
2023-05-04T03:37:00.190Z,58.52
2023-05-04T03:39:27.035Z,58.46
2023-05-04T03:41:53.549Z,59.05
2023-05-04T03:44:20.092Z,58.88
2023-05-04T03:47:13.015Z,58.53
2023-05-04T03:49:39.693Z,58.55
2023-05-04T03:52:06.626Z,58.60
2023-05-04T03:54:33.079Z,58.40
2023-05-04T03:56:59.547Z,58.53
2023-05-04T03:59:26.265Z,58.73
2023-05-04T04:01:52.880Z,58.40
2023-05-04T04:04:19.309Z,58.17
2023-05-04T04:06:45.867Z,58.16
2023-05-04T04:09:12.370Z,58.69
2023-05-04T04:11:38.857Z,58.80
2023-05-04T04:14:05.519Z,58.93
2023-05-04T04:16:32.170Z,58.85
2023-05-04T04:18:58.985Z,59.12
2023-05-04T04:21:26.260Z,59.08
2023-05-04T04:23:52.799Z,58.87
2023-05-04T04:26:20.626Z,59.13
2023-05-04T04:28:50.473Z,59.08
2023-05-04T04:31:20.532Z,58.86
2023-05-04T04:33:47.365Z,58.57
2023-05-04T04:36:16.683Z,58.66
2023-05-04T04:38:46.415Z,58.92
2023-05-04T04:41:13.037Z,58.53
2023-05-04T04:43:41.495Z,58.81
2023-05-04T04:46:10.864Z,58.65
2023-05-04T04:48:37.740Z,58.76
2023-05-04T04:51:07.197Z,58.50
2023-05-04T04:53:33.698Z,58.31
2023-05-04T04:56:00.232Z,58.03
2023-05-04T04:58:26.700Z,57.83
2023-05-04T05:00:58.331Z,57.97
2023-05-04T05:03:25.327Z,57.82
2023-05-04T05:05:51.936Z,58.51
2023-05-04T05:08:27.160Z,57.66
2023-05-04T05:10:53.906Z,58.16
2023-05-04T05:13:20.386Z,58.63
2023-05-04T05:15:46.900Z,58.13
2023-05-04T05:18:13.603Z,57.60
2023-05-04T05:20:40.090Z,57.31
2023-05-04T05:23:06.599Z,57.52
2023-05-04T05:25:36.214Z,57.35
2023-05-04T05:28:02.682Z,57.24
2023-05-04T05:30:29.206Z,58.01
2023-05-04T05:32:55.713Z,57.87
2023-05-04T05:35:22.268Z,57.69
2023-05-04T05:37:49.211Z,57.66
2023-05-04T05:40:15.701Z,57.83
2023-05-04T05:42:42.852Z,58.06
2023-05-04T05:45:10.877Z,58.30
2023-05-04T05:47:37.554Z,58.40
2023-05-04T05:50:06.541Z,58.47
2023-05-04T05:52:33.202Z,58.12
2023-05-04T05:55:02.217Z,58.15
2023-05-04T05:57:29.426Z,57.64
2023-05-04T05:59:56.632Z,58.17
2023-05-04T06:02:23.502Z,58.22
2023-05-04T06:04:50.244Z,57.64
2023-05-04T06:07:17.792Z,57.57
2023-05-04T06:09:44.409Z,57.01
2023-05-04T06:12:13.463Z,56.96
2023-05-04T06:14:43.928Z,56.24
2023-05-04T06:17:10.586Z,55.83
2023-05-04T06:19:40.338Z,55.31
2023-05-04T06:22:11.806Z,54.85
2023-05-04T06:24:38.290Z,54.37
2023-05-04T06:27:19.175Z,53.53
2023-05-04T06:29:46.546Z,53.28
2023-05-04T06:32:13.166Z,53.20
2023-05-04T06:34:39.717Z,52.99
2023-05-04T06:37:06.206Z,52.79
2023-05-04T06:39:33.453Z,52.21
2023-05-04T06:41:59.989Z,51.98
2023-05-04T06:44:27.799Z,51.70
2023-05-04T06:46:54.316Z,51.53
2023-05-04T06:49:20.885Z,50.86
2023-05-04T06:51:47.359Z,50.80
2023-05-04T06:54:13.887Z,50.48
2023-05-04T06:56:40.449Z,49.94
2023-05-04T06:59:08.099Z,49.42
2023-05-04T07:01:34.704Z,49.44
2023-05-04T07:04:01.338Z,48.81
2023-05-04T07:06:28.547Z,48.69
2023-05-04T07:08:55.172Z,48.71
2023-05-04T07:11:22.018Z,48.42
2023-05-04T07:13:48.578Z,48.12
2023-05-04T07:16:15.165Z,47.86
2023-05-04T07:18:41.647Z,47.05
2023-05-04T07:21:26.672Z,46.42
2023-05-04T07:23:54.928Z,46.65
2023-05-04T07:26:22.782Z,46.28
2023-05-04T07:28:49.287Z,46.18
2023-05-04T07:31:16.057Z,45.96
2023-05-04T07:33:46.131Z,45.53
2023-05-04T07:36:12.589Z,45.30
2023-05-04T07:38:39.164Z,44.99
2023-05-04T07:41:07.096Z,44.73
2023-05-04T07:43:33.549Z,44.96
2023-05-04T07:46:00.067Z,44.96
2023-05-04T07:48:26.853Z,44.50
2023-05-04T07:50:56.701Z,44.16
2023-05-04T07:53:25.348Z,44.06
2023-05-04T07:55:55.174Z,43.74
2023-05-04T07:58:23.796Z,43.52
2023-05-04T08:00:50.264Z,42.91
2023-05-04T08:03:16.801Z,43.06
2023-05-04T08:05:43.378Z,43.08
2023-05-04T08:08:09.909Z,42.47
2023-05-04T08:10:37.237Z,42.45
2023-05-04T08:13:05.288Z,42.31
2023-05-04T08:15:31.913Z,42.12
2023-05-04T08:17:58.509Z,42.21
2023-05-04T08:20:25.120Z,42.14
2023-05-04T08:22:52.025Z,42.36
2023-05-04T08:25:18.542Z,42.04
2023-05-04T08:27:45.746Z,41.82
2023-05-04T08:30:13.017Z,41.41
2023-05-04T08:32:40.187Z,41.37
2023-05-04T08:35:07.180Z,40.92
2023-05-04T08:37:33.969Z,40.91
2023-05-04T08:40:00.573Z,40.96
2023-05-04T08:42:34.523Z,40.59
2023-05-04T08:45:01.344Z,41.06
2023-05-04T08:47:31.718Z,40.55
2023-05-04T08:49:58.449Z,40.48
2023-05-04T08:52:26.908Z,40.18
2023-05-04T08:54:56.660Z,39.91
2023-05-04T08:57:24.767Z,39.76
2023-05-04T08:59:54.077Z,39.97
2023-05-04T09:02:24.646Z,39.49
2023-05-04T09:04:52.684Z,38.76
2023-05-04T09:07:21.346Z,38.52
2023-05-04T09:09:50.721Z,38.89
2023-05-04T09:12:18.117Z,38.78
2023-05-04T09:14:46.289Z,38.86
2023-05-04T09:17:25.351Z,38.39
2023-05-04T09:20:03.504Z,37.62
2023-05-04T09:22:30.922Z,37.79
2023-05-04T09:25:12.818Z,36.72
2023-05-04T09:27:42.574Z,37.49
2023-05-04T09:30:09.856Z,36.35
2023-05-04T09:32:45.996Z,36.86
2023-05-04T09:35:18.869Z,36.25
2023-05-04T09:37:57.787Z,37.01
2023-05-04T09:40:41.485Z,36.45
2023-05-04T09:43:10.547Z,36.60
2023-05-04T09:45:45.022Z,36.25
2023-05-04T09:48:25.442Z,35.75
2023-05-04T09:51:00.339Z,35.04
2023-05-04T09:53:30.040Z,35.05
2023-05-04T09:56:02.199Z,35.25
2023-05-04T09:58:31.664Z,34.61
2023-05-04T10:01:01.703Z,34.90
2023-05-04T10:03:29.498Z,33.88
2023-05-04T10:05:59.860Z,33.82
2023-05-04T10:08:28.085Z,32.93
2023-05-04T10:10:55.211Z,33.29
2023-05-04T10:13:21.748Z,33.01
2023-05-04T10:16:26.639Z,32.19
2023-05-04T10:19:37.088Z,33.13
2023-05-04T10:22:37.286Z,33.14
2023-05-04T10:25:30.729Z,31.51
2023-05-04T10:28:13.049Z,32.51
2023-05-04T10:30:40.077Z,32.71
2023-05-04T10:33:06.741Z,31.81
2023-05-04T10:35:33.312Z,31.92
2023-05-04T10:38:00.675Z,31.92
2023-05-04T10:40:40.677Z,30.60
2023-05-04T10:43:08.576Z,31.88
2023-05-04T10:45:42.598Z,32.03
2023-05-04T10:48:09.872Z,30.31
2023-05-04T10:51:02.669Z,30.78
2023-05-04T10:53:33.016Z,31.15
2023-05-04T10:55:59.861Z,30.43
2023-05-04T10:58:29.635Z,30.45
2023-05-04T11:00:56.229Z,30.87
2023-05-04T11:03:24.759Z,31.08
2023-05-04T11:05:54.471Z,30.99
2023-05-04T11:08:25.937Z,31.12
2023-05-04T11:11:04.975Z,30.00
2023-05-04T11:13:34.973Z,29.46
2023-05-04T11:16:02.319Z,29.48
2023-05-04T11:18:31.865Z,29.54
2023-05-04T11:20:58.682Z,29.08
2023-05-04T11:23:25.999Z,29.32
2023-05-04T11:25:53.254Z,29.38
2023-05-04T11:28:19.826Z,28.80
2023-05-04T11:30:47.932Z,28.77
2023-05-04T11:33:19.068Z,28.09
2023-05-04T11:35:45.592Z,28.41
2023-05-04T11:38:19.958Z,27.95
2023-05-04T11:40:48.476Z,27.90
2023-05-04T11:43:16.191Z,27.91
2023-05-04T11:45:44.749Z,27.30
2023-05-04T11:48:12.982Z,27.78
2023-05-04T11:50:39.746Z,27.85
2023-05-04T11:53:12.019Z,28.14
2023-05-04T11:55:39.061Z,27.61
2023-05-04T11:58:11.090Z,27.95
2023-05-04T12:00:46.536Z,28.12
2023-05-04T12:05:55.130Z,28.67
2023-05-04T12:08:32.266Z,28.07
2023-05-04T12:11:25.289Z,28.03
2023-05-04T12:14:10.255Z,27.65
2023-05-04T12:16:38.409Z,28.10
2023-05-04T12:19:15.130Z,28.02
2023-05-04T12:21:54.392Z,27.29
2023-05-04T12:24:22.334Z,28.43
2023-05-04T12:26:49.605Z,28.54
2023-05-04T12:29:16.253Z,28.51
2023-05-04T12:31:42.736Z,27.90
2023-05-04T12:34:09.211Z,28.02
2023-05-04T12:36:35.718Z,28.49
2023-05-04T12:39:02.226Z,28.50
2023-05-04T12:41:31.095Z,28.58
2023-05-04T12:43:57.705Z,28.07
2023-05-04T12:46:24.260Z,28.39
2023-05-04T12:48:51.050Z,28.34
2023-05-04T12:51:17.638Z,28.32
2023-05-04T12:53:44.134Z,28.07
2023-05-04T12:56:10.622Z,28.33
2023-05-04T12:58:37.136Z,27.90
2023-05-04T13:01:03.768Z,28.28
2023-05-04T13:03:30.469Z,28.39
2023-05-04T13:05:57.717Z,27.87
2023-05-04T13:08:24.304Z,27.92
2023-05-04T13:10:51.238Z,28.20
2023-05-04T13:13:18.874Z,28.19
2023-05-04T13:15:49.886Z,28.16
2023-05-04T13:18:16.362Z,28.25
2023-05-04T13:20:42.811Z,28.50
2023-05-04T13:23:09.293Z,28.69
2023-05-04T13:25:36.079Z,27.88
2023-05-04T13:28:03.391Z,27.71
2023-05-04T13:30:29.970Z,28.09
2023-05-04T13:32:56.614Z,27.23
2023-05-04T13:35:23.768Z,27.50
2023-05-04T13:37:50.883Z,27.96
2023-05-04T13:40:17.838Z,28.49
2023-05-04T13:42:44.564Z,28.37
2023-05-04T13:45:11.501Z,27.73
2023-05-04T13:47:38.079Z,27.93
2023-05-04T13:50:05.135Z,28.35
2023-05-04T13:52:32.376Z,28.35
2023-05-04T13:54:59.707Z,28.31
2023-05-04T13:57:29.766Z,28.31
2023-05-04T14:00:06.630Z,28.60
2023-05-04T14:02:34.832Z,28.37
2023-05-04T14:05:02.675Z,28.53
2023-05-04T14:07:29.946Z,28.71
2023-05-04T14:09:56.635Z,28.99
2023-05-04T14:12:23.196Z,28.44
2023-05-04T14:14:50.687Z,28.69
2023-05-04T14:17:17.577Z,28.83
2023-05-04T14:19:45.208Z,29.00
2023-05-04T14:22:12.812Z,29.24
2023-05-04T14:24:39.559Z,29.04
2023-05-04T14:27:06.092Z,28.92
2023-05-04T14:29:33.500Z,28.54
2023-05-04T14:32:00.842Z,27.94
2023-05-04T14:34:30.412Z,28.63
2023-05-04T14:36:57.571Z,28.73
2023-05-04T14:39:24.914Z,29.11
2023-05-04T14:41:52.753Z,28.94
2023-05-04T14:44:22.392Z,29.14
2023-05-04T14:46:48.941Z,28.99
2023-05-04T14:49:21.747Z,28.76
2023-05-04T14:52:02.068Z,29.23
2023-05-04T14:54:28.631Z,28.91
2023-05-04T14:56:55.075Z,28.99
2023-05-04T14:59:21.542Z,29.00
2023-05-04T15:01:48.110Z,29.05
2023-05-04T15:04:14.664Z,28.47
2023-05-04T15:06:41.205Z,27.64
2023-05-04T15:09:08.512Z,28.20
2023-05-04T15:11:35.057Z,28.11
2023-05-04T15:14:01.912Z,28.24
2023-05-04T15:16:32.290Z,27.96
2023-05-04T15:18:59.646Z,26.97
2023-05-04T15:21:27.756Z,27.05
2023-05-04T15:23:54.206Z,26.48
2023-05-04T15:26:20.661Z,26.24
2023-05-04T15:28:47.103Z,25.94
2023-05-04T15:31:17.188Z,25.38
2023-05-04T15:33:44.051Z,25.92
2023-05-04T15:36:10.749Z,25.90
2023-05-04T15:38:37.508Z,26.33
2023-05-04T15:41:05.827Z,26.48
2023-05-04T15:43:33.913Z,26.53
2023-05-04T15:46:00.720Z,26.18
2023-05-04T15:48:33.112Z,25.00
2023-05-04T15:50:59.875Z,25.86
2023-05-04T15:53:26.995Z,26.02
2023-05-04T15:55:53.533Z,26.02
2023-05-04T15:58:20.141Z,25.05
2023-05-04T16:00:46.674Z,25.31
2023-05-04T16:03:13.236Z,25.35
2023-05-04T16:05:40.046Z,24.72
2023-05-04T16:08:06.544Z,24.68
2023-05-04T16:10:34.103Z,24.58
2023-05-04T16:13:03.953Z,24.84
2023-05-04T16:15:35.129Z,25.60
2023-05-04T16:18:01.822Z,25.40
2023-05-04T16:20:29.341Z,25.50
2023-05-04T16:22:56.211Z,25.43
2023-05-04T16:25:22.924Z,25.81
2023-05-04T16:27:49.529Z,25.77
2023-05-04T16:30:17.085Z,26.14
2023-05-04T16:32:43.594Z,25.96
2023-05-04T16:35:14.259Z,26.44
2023-05-04T16:37:40.741Z,25.98
2023-05-04T16:40:14.106Z,26.16
2023-05-04T16:42:42.577Z,25.97
2023-05-04T16:45:16.381Z,25.86
2023-05-04T16:47:44.192Z,26.26
2023-05-04T16:50:12.261Z,26.34
2023-05-04T16:52:40.135Z,26.44
2023-05-04T16:55:10.661Z,26.84
2023-05-04T16:57:38.270Z,26.83
2023-05-04T17:00:06.661Z,27.19
2023-05-04T17:02:33.598Z,26.83
2023-05-04T17:05:00.186Z,26.61
2023-05-04T17:07:26.753Z,27.25
2023-05-04T17:09:53.221Z,27.04
2023-05-04T17:12:19.835Z,27.43
2023-05-04T17:14:47.134Z,27.46
2023-05-04T17:17:13.675Z,27.84
2023-05-04T17:19:43.033Z,28.62
2023-05-04T17:22:11.081Z,28.74
2023-05-04T17:24:37.723Z,28.74
2023-05-04T17:27:04.541Z,28.63
2023-05-04T17:29:31.161Z,28.74
2023-05-04T17:31:57.714Z,28.63
2023-05-04T17:34:24.229Z,28.73
2023-05-04T17:36:50.914Z,29.07
2023-05-04T17:39:18.661Z,28.29
2023-05-04T17:41:48.860Z,28.20
2023-05-04T17:44:16.316Z,28.17
2023-05-04T17:46:43.273Z,27.97
2023-05-04T17:49:09.959Z,27.79
2023-05-04T17:51:40.023Z,28.16
2023-05-04T17:54:06.670Z,28.04
2023-05-04T17:56:33.265Z,28.46
2023-05-04T17:59:02.856Z,28.45
2023-05-04T18:01:32.413Z,28.70
2023-05-04T18:04:07.937Z,28.56
2023-05-04T18:06:39.005Z,28.78
2023-05-04T18:09:05.628Z,29.00
2023-05-04T18:11:32.270Z,29.17
2023-05-04T18:14:01.597Z,29.73
2023-05-04T18:16:28.152Z,29.90
2023-05-04T18:18:55.620Z,30.08
2023-05-04T18:21:23.547Z,30.44
2023-05-04T18:23:52.160Z,30.70
2023-05-04T18:26:30.558Z,30.98
2023-05-04T18:29:07.469Z,31.12
2023-05-04T18:31:38.053Z,31.60
2023-05-04T18:34:05.790Z,31.91
2023-05-04T18:36:32.619Z,32.02
2023-05-04T18:39:00.515Z,32.31
2023-05-04T18:41:32.339Z,32.88
2023-05-04T18:44:00.787Z,32.69
2023-05-04T18:46:27.486Z,33.14
2023-05-04T18:48:55.028Z,33.04
2023-05-04T18:51:21.578Z,33.58
2023-05-04T18:53:48.640Z,33.67
2023-05-04T18:56:27.144Z,33.51
2023-05-04T18:58:53.679Z,33.84
2023-05-04T19:01:21.878Z,33.96
2023-05-04T19:03:48.586Z,33.95
2023-05-04T19:06:15.206Z,34.28
2023-05-04T19:08:41.796Z,34.65
2023-05-04T19:11:08.372Z,35.01
2023-05-04T19:13:34.827Z,34.91
2023-05-04T19:16:04.040Z,35.30
2023-05-04T19:18:30.594Z,35.03
2023-05-04T19:20:57.366Z,35.08
2023-05-04T19:23:24.777Z,35.37
2023-05-04T19:25:51.284Z,35.98
2023-05-04T19:28:17.796Z,36.16
2023-05-04T19:30:44.329Z,36.68
2023-05-04T19:33:11.029Z,36.61
2023-05-04T19:35:37.616Z,36.93
2023-05-04T19:38:18.161Z,37.24
2023-05-04T19:40:44.673Z,37.33
2023-05-04T19:43:13.769Z,37.21
2023-05-04T19:45:40.821Z,37.25
2023-05-04T19:48:07.595Z,37.28
2023-05-04T19:50:34.348Z,37.60
2023-05-04T19:53:00.830Z,37.61
2023-05-04T19:55:27.355Z,37.83
2023-05-04T19:57:53.850Z,38.03
2023-05-04T20:00:20.606Z,38.26
2023-05-04T20:02:47.183Z,38.45
2023-05-04T20:05:14.192Z,38.63
2023-05-04T20:07:40.873Z,39.24
2023-05-04T20:10:08.401Z,39.38
2023-05-04T20:12:35.310Z,39.48
2023-05-04T20:15:01.943Z,39.58
2023-05-04T20:17:28.712Z,39.74
2023-05-04T20:19:55.356Z,39.73
2023-05-04T20:22:22.144Z,39.69
2023-05-04T20:24:48.639Z,40.02
2023-05-04T20:27:15.206Z,40.28
2023-05-04T20:29:41.693Z,40.94
2023-05-04T20:32:08.942Z,41.23
2023-05-04T20:34:36.229Z,41.17
2023-05-04T20:37:02.786Z,41.34
2023-05-04T20:39:29.273Z,41.46
2023-05-04T20:41:55.767Z,41.21
2023-05-04T20:44:22.346Z,41.62
2023-05-04T20:46:49.015Z,41.39
2023-05-04T20:49:15.530Z,41.58
2023-05-04T20:51:42.141Z,42.08
2023-05-04T20:54:08.718Z,42.27
2023-05-04T20:56:35.277Z,42.53
2023-05-04T20:59:01.860Z,42.91
2023-05-04T21:01:29.549Z,42.79
2023-05-04T21:03:56.420Z,42.67
2023-05-04T21:06:24.272Z,42.37
2023-05-04T21:08:50.888Z,42.80
2023-05-04T21:11:27.133Z,42.34
2023-05-04T21:13:53.790Z,42.80
2023-05-04T21:16:20.368Z,42.82
2023-05-04T21:18:46.913Z,43.35
2023-05-04T21:21:13.499Z,43.75
2023-05-04T21:23:40.008Z,43.44
2023-05-04T21:26:09.144Z,43.55
2023-05-04T21:28:35.754Z,43.27
2023-05-04T21:31:07.592Z,43.90
2023-05-04T21:33:35.911Z,43.73
2023-05-04T21:36:15.557Z,43.71
2023-05-04T21:38:42.572Z,43.70
2023-05-04T21:41:14.264Z,43.91
2023-05-04T21:43:41.556Z,43.82
2023-05-04T21:46:13.099Z,44.21
2023-05-04T21:48:40.161Z,44.26
2023-05-04T21:51:07.039Z,44.56
2023-05-04T21:53:33.685Z,44.26
2023-05-04T21:56:14.449Z,44.93
2023-05-04T21:58:41.063Z,44.97
2023-05-04T22:01:08.209Z,45.19
2023-05-04T22:03:35.538Z,45.52
2023-05-04T22:06:02.311Z,45.44
2023-05-04T22:08:29.692Z,45.55
2023-05-04T22:10:58.546Z,45.45
2023-05-04T22:13:25.925Z,45.34
2023-05-04T22:15:53.461Z,45.45
2023-05-04T22:18:20.954Z,45.99
2023-05-04T22:20:50.773Z,46.12
2023-05-04T22:23:17.299Z,46.14
2023-05-04T22:25:43.839Z,46.07
2023-05-04T22:28:12.164Z,45.63
2023-05-04T22:30:38.811Z,45.76
2023-05-04T22:33:18.630Z,46.06
2023-05-04T22:35:54.093Z,45.98
2023-05-04T22:38:23.115Z,45.86
2023-05-04T22:40:50.143Z,45.83
2023-05-04T22:43:16.788Z,45.71
2023-05-04T22:45:43.246Z,45.81
2023-05-04T22:48:14.006Z,46.32
2023-05-04T22:50:41.181Z,46.33
2023-05-04T22:53:07.876Z,46.42
2023-05-04T22:55:43.412Z,46.30
2023-05-04T22:58:09.911Z,46.63
2023-05-04T23:00:36.401Z,46.62
2023-05-04T23:03:03.651Z,46.46
2023-05-04T23:05:31.136Z,46.40
2023-05-04T23:07:57.600Z,46.75
2023-05-04T23:10:24.144Z,46.82
2023-05-04T23:12:50.622Z,46.79
2023-05-04T23:15:19.229Z,46.84
2023-05-04T23:17:45.798Z,47.06
2023-05-04T23:20:13.359Z,47.05
2023-05-04T23:23:00.045Z,47.13
2023-05-04T23:25:26.586Z,47.52
2023-05-04T23:28:10.830Z,47.41
2023-05-04T23:30:37.315Z,47.64
2023-05-04T23:33:03.980Z,47.75
2023-05-04T23:35:37.656Z,47.48
2023-05-04T23:38:04.264Z,47.25
2023-05-04T23:40:30.729Z,47.50
2023-05-04T23:42:57.441Z,47.35
2023-05-04T23:45:23.957Z,47.29
2023-05-04T23:47:50.531Z,47.43
2023-05-04T23:50:17.350Z,47.36
2023-05-04T23:52:50.544Z,47.20
2023-05-04T23:55:17.164Z,47.41
2023-05-04T23:57:44.038Z,47.04
